createdAt,value
2023-08-04T00:04:25.802Z,13.54
2023-08-04T00:09:27.393Z,13.41
2023-08-04T00:14:29.050Z,13.60
2023-08-04T00:19:30.658Z,13.77
2023-08-04T00:24:32.261Z,13.88
2023-08-04T00:29:33.907Z,13.95
2023-08-04T00:34:35.519Z,13.97
2023-08-04T00:39:37.102Z,14.01
2023-08-04T00:44:38.738Z,14.11
2023-08-04T00:49:41.547Z,14.14
2023-08-04T00:54:45.101Z,14.16
2023-08-04T00:59:46.761Z,14.21
2023-08-04T01:04:48.466Z,14.28
2023-08-04T01:10:04.958Z,14.35
2023-08-04T01:15:08.024Z,14.40
2023-08-04T01:20:10.213Z,14.46
2023-08-04T01:25:11.916Z,14.55
2023-08-04T01:30:19.378Z,14.59
2023-08-04T01:35:21.263Z,14.59
2023-08-04T01:40:22.997Z,14.57
2023-08-04T01:45:24.607Z,14.48
2023-08-04T01:50:26.258Z,14.51
2023-08-04T01:55:27.866Z,14.51
2023-08-04T02:00:29.493Z,14.53
2023-08-04T02:05:31.058Z,14.52
2023-08-04T02:10:35.073Z,14.54
2023-08-04T02:15:36.674Z,14.53
2023-08-04T02:20:38.292Z,14.41
2023-08-04T02:25:39.874Z,14.44
2023-08-04T02:30:41.539Z,14.51
2023-08-04T02:35:43.179Z,14.59
2023-08-04T02:40:44.975Z,14.64
2023-08-04T02:45:52.147Z,14.64
2023-08-04T02:51:04.049Z,14.67
2023-08-04T02:56:13.561Z,14.68
2023-08-04T03:01:15.935Z,14.69
2023-08-04T03:06:17.618Z,14.68
2023-08-04T03:11:19.197Z,14.64
2023-08-04T03:16:20.842Z,14.59
2023-08-04T03:21:22.418Z,14.54
2023-08-04T03:26:24.053Z,14.57
2023-08-04T03:31:25.810Z,14.62
2023-08-04T03:36:27.466Z,14.66
2023-08-04T03:41:29.821Z,14.64
2023-08-04T03:46:31.478Z,14.63
2023-08-04T03:51:33.097Z,14.58
2023-08-04T03:56:34.727Z,14.48
2023-08-04T04:01:36.394Z,14.36
2023-08-04T04:06:38.154Z,14.29
2023-08-04T04:11:39.730Z,14.25
2023-08-04T04:16:41.345Z,14.20
2023-08-04T04:21:43.586Z,14.20
2023-08-04T04:26:45.192Z,14.22
2023-08-04T04:31:47.009Z,14.20
2023-08-04T04:36:48.737Z,14.24
2023-08-04T04:41:50.389Z,14.23
2023-08-04T04:46:52.210Z,14.28
2023-08-04T04:51:53.851Z,14.38
2023-08-04T04:56:55.539Z,14.43
2023-08-04T05:01:57.225Z,14.42
2023-08-04T05:06:58.878Z,14.38
2023-08-04T05:12:00.472Z,14.46
2023-08-04T05:17:02.103Z,14.58
2023-08-04T05:22:03.851Z,14.69
2023-08-04T05:27:06.150Z,14.75
2023-08-04T05:32:08.088Z,14.82
2023-08-04T05:37:09.777Z,15.00
2023-08-04T05:42:11.383Z,15.30
2023-08-04T05:47:13.272Z,15.52
2023-08-04T05:52:14.959Z,15.61
2023-08-04T05:57:24.332Z,15.73
2023-08-04T06:02:25.955Z,15.96
2023-08-04T06:07:27.605Z,16.12
2023-08-04T06:12:30.801Z,16.34
2023-08-04T06:17:34.180Z,16.63
2023-08-04T06:22:36.701Z,16.81
2023-08-04T06:27:38.401Z,17.00
2023-08-04T06:32:42.548Z,17.27
2023-08-04T06:37:44.225Z,17.73
2023-08-04T06:42:45.976Z,18.21
2023-08-04T06:47:47.811Z,18.62
2023-08-04T06:52:49.398Z,18.91
2023-08-04T06:57:52.236Z,19.04
2023-08-04T07:02:53.941Z,19.29
2023-08-04T07:07:55.909Z,19.64
2023-08-04T07:12:57.740Z,19.98
2023-08-04T07:17:59.399Z,20.24
2023-08-04T07:23:01.020Z,20.45
2023-08-04T07:28:02.654Z,20.82
2023-08-04T07:33:08.014Z,20.96
2023-08-04T07:38:09.696Z,20.95
2023-08-04T07:43:13.232Z,20.90
2023-08-04T07:48:15.025Z,20.76
2023-08-04T07:53:16.832Z,20.19
2023-08-04T07:58:18.404Z,20.23
2023-08-04T08:03:20.118Z,20.67
2023-08-04T08:08:21.860Z,21.01
2023-08-04T08:13:30.101Z,21.33
2023-08-04T08:18:31.629Z,21.47
2023-08-04T08:23:33.594Z,21.89
2023-08-04T08:28:35.309Z,22.11
2023-08-04T08:33:36.982Z,22.31
2023-08-04T08:38:38.579Z,22.48
2023-08-04T08:43:45.128Z,22.96
2023-08-04T08:48:47.289Z,22.83
2023-08-04T08:53:49.540Z,22.51
2023-08-04T08:58:51.391Z,22.27
2023-08-04T09:03:53.101Z,22.08
2023-08-04T09:08:55.339Z,21.90
2023-08-04T09:13:57.649Z,21.88
2023-08-04T09:19:07.453Z,22.30
2023-08-04T09:24:14.440Z,22.04
2023-08-04T09:29:16.253Z,21.80
2023-08-04T09:34:17.946Z,21.71
2023-08-04T09:39:19.544Z,21.78
2023-08-04T09:44:22.238Z,21.78
2023-08-04T09:49:25.193Z,21.92
2023-08-04T09:54:26.808Z,22.09
2023-08-04T09:59:29.304Z,22.48
2023-08-04T10:04:31.630Z,22.93
2023-08-04T10:09:35.840Z,23.20
2023-08-04T10:14:37.683Z,23.02
2023-08-04T10:19:39.459Z,22.58
2023-08-04T10:24:44.255Z,21.83
2023-08-04T10:29:46.565Z,20.48
2023-08-04T10:34:49.122Z,20.01
2023-08-04T10:39:56.967Z,19.99
2023-08-04T10:45:07.358Z,19.94
2023-08-04T10:50:09.395Z,20.00
2023-08-04T10:55:13.715Z,20.15
2023-08-04T11:00:16.078Z,20.54
2023-08-04T11:05:18.004Z,20.87
2023-08-04T11:10:19.886Z,20.63
2023-08-04T11:15:25.269Z,20.36
2023-08-04T11:20:33.433Z,19.90
2023-08-04T11:25:35.954Z,19.70
2023-08-04T11:30:40.380Z,19.58
2023-08-04T11:35:41.966Z,19.44
2023-08-04T11:41:01.045Z,19.30
2023-08-04T11:46:07.858Z,19.26
2023-08-04T11:51:09.844Z,19.18
2023-08-04T11:56:24.740Z,19.19
2023-08-04T12:01:35.885Z,18.91
2023-08-04T12:06:38.862Z,18.89
2023-08-04T12:11:49.473Z,19.06
2023-08-04T12:17:00.418Z,19.31
2023-08-04T12:22:05.382Z,19.38
2023-08-04T12:27:07.542Z,19.43
2023-08-04T12:32:09.208Z,19.86
2023-08-04T12:37:11.135Z,19.89
2023-08-04T12:42:12.840Z,19.92
2023-08-04T12:47:14.634Z,19.88
2023-08-04T12:52:16.338Z,20.08
2023-08-04T12:57:18.075Z,20.09
2023-08-04T13:02:19.799Z,19.91
2023-08-04T13:07:21.441Z,19.39
2023-08-04T13:12:23.166Z,19.23
2023-08-04T13:17:28.309Z,19.30
2023-08-04T13:22:29.920Z,19.77
2023-08-04T13:27:31.877Z,20.17
2023-08-04T13:32:33.548Z,20.35
2023-08-04T13:37:35.233Z,20.23
2023-08-04T13:42:36.851Z,20.26
2023-08-04T13:47:39.174Z,20.16
2023-08-04T13:52:40.863Z,20.35
2023-08-04T13:57:42.673Z,20.71
2023-08-04T14:02:44.589Z,20.96
2023-08-04T14:08:14.077Z,21.27
2023-08-04T14:13:15.696Z,21.61
2023-08-04T14:18:17.499Z,22.06
2023-08-04T14:23:19.655Z,22.31
2023-08-04T14:28:22.505Z,22.17
2023-08-04T14:33:24.141Z,22.13
2023-08-04T14:38:25.724Z,22.44
2023-08-04T14:43:27.335Z,22.74
2023-08-04T14:48:29.131Z,22.61
2023-08-04T14:53:30.790Z,22.32
2023-08-04T14:58:32.590Z,22.09
2023-08-04T15:03:37.971Z,21.77
2023-08-04T15:08:40.353Z,21.55
2023-08-04T15:13:45.236Z,21.38
2023-08-04T15:18:46.900Z,21.18
2023-08-04T15:23:48.953Z,21.05
2023-08-04T15:28:53.612Z,20.87
2023-08-04T15:33:55.564Z,20.59
2023-08-04T15:38:57.211Z,20.35
2023-08-04T15:43:58.831Z,20.07
2023-08-04T15:49:00.438Z,19.70
2023-08-04T15:54:02.085Z,19.27
2023-08-04T15:59:03.927Z,19.15
2023-08-04T16:04:05.631Z,18.87
2023-08-04T16:09:07.624Z,18.47
2023-08-04T16:14:09.304Z,18.19
2023-08-04T16:19:10.858Z,17.88
2023-08-04T16:24:12.488Z,17.63
2023-08-04T16:29:14.090Z,17.45
2023-08-04T16:34:15.710Z,17.26
2023-08-04T16:39:17.526Z,17.08
2023-08-04T16:44:19.453Z,16.96
2023-08-04T16:49:22.925Z,16.82
2023-08-04T16:54:24.579Z,16.70
2023-08-04T16:59:26.165Z,16.63
2023-08-04T17:04:29.163Z,16.48
2023-08-04T17:09:30.772Z,16.32
2023-08-04T17:14:32.557Z,16.12
2023-08-04T17:19:34.163Z,15.97
2023-08-04T17:24:35.894Z,15.83
2023-08-04T17:29:37.540Z,15.70
2023-08-04T17:34:39.256Z,15.65
2023-08-04T17:39:40.829Z,15.66
2023-08-04T17:44:42.416Z,15.73
2023-08-04T17:49:45.777Z,15.75
2023-08-04T17:54:47.594Z,15.73
2023-08-04T17:59:55.742Z,15.73
2023-08-04T18:04:57.436Z,15.72
2023-08-04T18:09:59.029Z,15.73
2023-08-04T18:15:00.826Z,15.72
2023-08-04T18:20:02.393Z,15.69
2023-08-04T18:25:04.157Z,15.66
2023-08-04T18:30:07.236Z,15.59
2023-08-04T18:35:09.525Z,15.58
2023-08-04T18:40:12.120Z,15.57
2023-08-04T18:45:14.994Z,15.53
2023-08-04T18:50:16.585Z,15.46
2023-08-04T18:55:18.134Z,15.37
2023-08-04T19:00:22.731Z,15.32
2023-08-04T19:05:24.453Z,15.26
2023-08-04T19:10:26.278Z,15.18
2023-08-04T19:15:27.862Z,15.10
2023-08-04T19:20:29.445Z,15.07
2023-08-04T19:25:31.094Z,15.04
2023-08-04T19:30:32.699Z,14.98
2023-08-04T19:35:34.319Z,14.88
2023-08-04T19:40:35.899Z,14.69
2023-08-04T19:45:37.516Z,14.59
2023-08-04T19:50:39.207Z,14.54
2023-08-04T19:55:46.483Z,14.52
2023-08-04T20:00:50.594Z,14.51
2023-08-04T20:05:52.933Z,14.42
2023-08-04T20:10:58.490Z,14.39
2023-08-04T20:16:07.544Z,14.39
2023-08-04T20:21:09.871Z,14.40
2023-08-04T20:26:13.563Z,14.41
2023-08-04T20:31:18.691Z,14.42
2023-08-04T20:36:20.314Z,14.39
2023-08-04T20:41:24.823Z,14.40
2023-08-04T20:46:26.445Z,14.40
2023-08-04T20:51:28.289Z,14.43
2023-08-04T20:56:29.842Z,14.45
2023-08-04T21:01:31.506Z,14.46
2023-08-04T21:06:33.240Z,14.43
2023-08-04T21:11:37.729Z,14.41
2023-08-04T21:16:40.060Z,14.41
2023-08-04T21:21:41.645Z,14.39
2023-08-04T21:26:43.212Z,14.35
2023-08-04T21:31:48.646Z,14.35
2023-08-04T21:36:50.530Z,14.32
2023-08-04T21:41:52.409Z,14.35
2023-08-04T21:46:54.078Z,14.37
2023-08-04T21:51:55.729Z,14.34
2023-08-04T21:56:57.429Z,14.35
2023-08-04T22:02:01.969Z,14.32
2023-08-04T22:07:03.669Z,14.34
2023-08-04T22:12:08.323Z,14.34
2023-08-04T22:17:09.987Z,14.34
2023-08-04T22:22:12.977Z,14.33
2023-08-04T22:27:15.383Z,14.32
2023-08-04T22:32:17.091Z,14.29
2023-08-04T22:37:18.692Z,14.28
2023-08-04T22:42:20.241Z,14.24
2023-08-04T22:47:21.863Z,14.23
2023-08-04T22:52:24.305Z,14.21
2023-08-04T22:57:25.924Z,14.20
2023-08-04T23:02:27.575Z,14.18
2023-08-04T23:07:29.319Z,14.18
2023-08-04T23:12:30.904Z,14.15
2023-08-04T23:17:32.558Z,14.15
2023-08-04T23:22:34.272Z,14.15
2023-08-04T23:27:35.827Z,14.13
2023-08-04T23:32:37.419Z,14.13
2023-08-04T23:37:39.010Z,14.09
2023-08-04T23:42:40.593Z,14.07
2023-08-04T23:47:42.188Z,14.06
2023-08-04T23:52:43.820Z,14.07
2023-08-04T23:57:45.829Z,14.08
